Time;durP1;ratioP1;P1;durP2;ratioP2;P2;SDS_P1;SDS_P2;PMS_P1;PMS_P2;Temp;Humidity;BMP_temperature;BMP_pressure;BME280_temperature;BME280_humidity;BME280_pressure;Samples;Min_cycle;Max_cycle;Signal;HPM_P1;HPM_P2
2024/01/13 00:02:11;;;;;;;17.02;8.55;;;;;;;;;;4942538;29;20040;-59
2024/01/13 00:04:36;;;;;;;14.60;7.10;;;;;;;;;;4959074;29;20036;-58
2024/01/13 00:07:02;;;;;;;17.48;7.78;;;;;;;;;;4951900;29;20040;-58
2024/01/13 00:09:27;;;;;;;14.30;7.03;;;;;;;;;;4964960;29;20024;-59
2024/01/13 00:11:53;;;;;;;15.35;7.78;;;;;;;;;;4965094;29;20032;-57
2024/01/13 00:14:18;;;;;;;20.13;7.93;;;;;;;;;;4963803;29;20064;-59
2024/01/13 00:16:43;;;;;;;20.33;8.43;;;;;;;;;;4965500;29;20083;-58
2024/01/13 00:19:08;;;;;;;23.43;10.37;;;;;;;;;;4966687;29;20054;-58
2024/01/13 00:21:34;;;;;;;20.13;11.23;;;;;;;;;;4960057;29;20063;-59
2024/01/13 00:23:59;;;;;;;35.00;13.53;;;;;;;;;;4958510;29;20301;-59
2024/01/13 00:26:25;;;;;;;30.60;14.20;;;;;;;;;;4946560;29;20122;-59
2024/01/13 00:28:50;;;;;;;27.77;13.50;;;;;;;;;;4961248;29;20037;-59
2024/01/13 00:31:16;;;;;;;26.85;13.52;;;;;;;;;;4962916;29;20040;-59
2024/01/13 00:33:43;;;;;;;28.43;12.97;;;;;;;;;;4960655;29;20035;-58
2024/01/13 00:36:08;;;;;;;;;;;;;;;;;;4959792;29;20103;-55
2024/01/13 00:38:33;;;;;;;48.80;19.45;;;;;;;;;;4963012;29;19911;-59
2024/01/13 00:40:59;;;;;;;38.63;16.17;;;;;;;;;;4967164;29;20095;-55
2024/01/13 00:43:24;;;;;;;40.90;16.90;;;;;;;;;;4958968;29;20176;-59
2024/01/13 00:45:50;;;;;;;39.17;15.57;;;;;;;;;;4958098;29;20104;-58
2024/01/13 00:48:15;;;;;;;37.27;15.20;;;;;;;;;;4965783;29;20059;-57
2024/01/13 00:50:41;;;;;;;38.97;15.10;;;;;;;;;;4958587;29;20286;-59
2024/01/13 00:53:06;;;;;;;45.33;15.23;;;;;;;;;;4958641;29;20035;-60
2024/01/13 00:55:32;;;;;;;39.20;14.80;;;;;;;;;;4958874;29;20262;-58
2024/01/13 00:57:57;;;;;;;35.30;14.33;;;;;;;;;;4961440;29;20099;-58
2024/01/13 01:00:23;;;;;;;27.27;10.33;;;;;;;;;;4959263;29;20095;-58
2024/01/13 01:02:48;;;;;;;20.10;8.40;;;;;;;;;;4968123;29;20265;-59
2024/01/13 01:05:14;;;;;;;18.87;8.47;;;;;;;;;;4941042;29;20036;-58
2024/01/13 01:07:39;;;;;;;14.82;7.38;;;;;;;;;;4959673;29;20036;-58
2024/01/13 01:10:05;;;;;;;16.13;7.07;;;;;;;;;;4962333;29;20040;-59
2024/01/13 01:12:31;;;;;;;18.05;8.32;;;;;;;;;;4959346;29;20058;-57
2024/01/13 01:14:56;;;;;;;16.00;8.43;;;;;;;;;;4958457;29;20091;-58
2024/01/13 01:17:22;;;;;;;19.27;8.40;;;;;;;;;;4962990;29;20277;-58
2024/01/13 01:19:47;;;;;;;18.63;8.60;;;;;;;;;;4964727;29;20055;-59
2024/01/13 01:22:12;;;;;;;24.27;8.77;;;;;;;;;;4963435;29;20032;-62
2024/01/13 01:24:38;;;;;;;16.17;7.80;;;;;;;;;;4957365;29;20305;-57
2024/01/13 01:27:04;;;;;;;18.10;8.40;;;;;;;;;;4961689;29;20028;-59
2024/01/13 01:29:29;;;;;;;16.40;7.80;;;;;;;;;;4964003;29;20039;-58
2024/01/13 01:31:55;;;;;;;20.27;8.63;;;;;;;;;;4960496;29;20265;-58
2024/01/13 01:34:20;;;;;;;17.67;8.77;;;;;;;;;;4957481;29;20043;-55
2024/01/13 01:36:45;;;;;;;18.30;9.73;;;;;;;;;;4958875;29;20030;-57
2024/01/13 01:39:11;;;;;;;16.77;8.10;;;;;;;;;;4956999;29;20036;-57
2024/01/13 01:41:37;;;;;;;20.60;9.93;;;;;;;;;;4958131;29;20067;-59
2024/01/13 01:44:02;;;;;;;23.47;11.27;;;;;;;;;;4940843;29;20380;-59
2024/01/13 01:46:30;;;;;;;19.05;9.88;;;;;;;;;;4960343;29;20120;-58
2024/01/13 01:48:58;;;;;;;18.70;9.95;;;;;;;;;;4960737;29;20039;-58
2024/01/13 01:51:23;;;;;;;19.88;9.50;;;;;;;;;;4960632;29;20087;-57
2024/01/13 01:53:49;;;;;;;23.45;10.25;;;;;;;;;;4960724;29;20042;-59
2024/01/13 01:56:18;;;;;;;24.50;10.73;;;;;;;;;;4958961;29;20028;-58
2024/01/13 01:58:44;;;;;;;21.73;10.57;;;;;;;;;;4960098;29;20040;-58
2024/01/13 02:01:10;;;;;;;21.08;10.50;;;;;;;;;;4956592;29;20051;-55
2024/01/13 02:03:36;;;;;;;22.02;10.35;;;;;;;;;;4963463;29;20035;-58
2024/01/13 02:06:02;;;;;;;23.77;10.75;;;;;;;;;;4962177;29;20085;-59
2024/01/13 02:08:28;;;;;;;21.60;10.02;;;;;;;;;;4956678;29;20050;-58
2024/01/13 02:10:53;;;;;;;33.42;11.75;;;;;;;;;;4956308;29;20100;-58
2024/01/13 02:13:19;;;;;;;22.17;11.10;;;;;;;;;;4960246;29;20063;-57
2024/01/13 02:15:45;;;;;;;21.53;10.63;;;;;;;;;;4961182;29;20277;-59
2024/01/13 02:18:10;;;;;;;24.93;11.83;;;;;;;;;;4963357;29;20090;-58
2024/01/13 02:20:36;;;;;;;26.40;12.48;;;;;;;;;;4956975;29;20040;-59
2024/01/13 02:23:01;;;;;;;24.30;11.13;;;;;;;;;;4959787;29;20035;-60
2024/01/13 02:25:27;;;;;;;28.63;12.20;;;;;;;;;;4942340;29;20043;-59
2024/01/13 02:27:52;;;;;;;30.47;13.80;;;;;;;;;;4956835;29;20277;-59
2024/01/13 02:30:18;;;;;;;34.77;13.40;;;;;;;;;;4956266;29;20027;-58
2024/01/13 02:32:43;;;;;;;41.50;14.70;;;;;;;;;;4955406;29;20032;-55
2024/01/13 02:35:09;;;;;;;33.70;14.43;;;;;;;;;;4956385;29;20064;-58
2024/01/13 02:37:34;;;;;;;33.13;13.73;;;;;;;;;;4957389;29;20126;-59
2024/01/13 02:39:59;;;;;;;34.13;14.97;;;;;;;;;;4957919;29;20038;-59
2024/01/13 02:42:25;;;;;;;35.50;15.73;;;;;;;;;;4957909;29;20036;-60
2024/01/13 02:44:51;;;;;;;35.72;15.00;;;;;;;;;;4956235;29;20043;-60
2024/01/13 02:47:16;;;;;;;37.30;17.93;;;;;;;;;;4963376;29;20047;-58
2024/01/13 02:49:42;;;;;;;47.80;21.15;;;;;;;;;;4961812;29;20063;-60
2024/01/13 02:52:07;;;;;;;44.33;19.37;;;;;;;;;;4959060;29;20043;-59
2024/01/13 02:54:33;;;;;;;38.40;19.02;;;;;;;;;;4960502;29;20095;-58
2024/01/13 02:56:59;;;;;;;43.07;19.07;;;;;;;;;;4964421;29;20031;-58
2024/01/13 02:59:24;;;;;;;;;;;;;;;;;;4965680;29;20035;-57
2024/01/13 03:01:50;;;;;;;43.20;18.50;;;;;;;;;;4974640;29;19910;-59
2024/01/13 03:04:16;;;;;;;40.45;18.17;;;;;;;;;;4963980;29;20036;-60
2024/01/13 03:06:42;;;;;;;35.40;16.80;;;;;;;;;;4959771;29;20053;-59
2024/01/13 03:09:07;;;;;;;51.80;23.50;;;;;;;;;;4962428;29;20040;-59
2024/01/13 03:11:33;;;;;;;43.08;20.95;;;;;;;;;;4960956;29;20051;-60
2024/01/13 03:13:58;;;;;;;48.03;22.10;;;;;;;;;;4971946;29;20035;-57
2024/01/13 03:16:24;;;;;;;48.38;22.85;;;;;;;;;;4960358;29;20043;-58
2024/01/13 03:18:49;;;;;;;45.17;23.77;;;;;;;;;;4969345;29;20035;-58
2024/01/13 03:21:15;;;;;;;51.30;25.43;;;;;;;;;;4969488;29;20296;-58
2024/01/13 03:23:45;;;;;;;46.13;23.13;;;;;;;;;;4962193;29;20020;-60
2024/01/13 03:26:10;;;;;;;54.13;24.52;;;;;;;;;;4950899;29;20035;-59
2024/01/13 03:28:36;;;;;;;47.38;24.10;;;;;;;;;;4959735;29;20083;-59
2024/01/13 03:31:01;;;;;;;51.80;23.67;;;;;;;;;;4959928;29;20035;-59
2024/01/13 03:33:27;;;;;;;49.97;25.43;;;;;;;;;;4970153;29;20262;-57
2024/01/13 03:35:54;;;;;;;52.73;26.43;;;;;;;;;;4959877;29;20036;-57
2024/01/13 03:38:19;;;;;;;50.58;24.75;;;;;;;;;;4966598;29;20266;-57
2024/01/13 03:40:45;;;;;;;55.73;26.70;;;;;;;;;;4964060;29;20042;-59
2024/01/13 03:43:10;;;;;;;53.67;25.53;;;;;;;;;;4969903;29;20338;-60
2024/01/13 03:45:36;;;;;;;44.13;23.30;;;;;;;;;;4943368;29;20068;-59
2024/01/13 03:48:01;;;;;;;53.87;25.03;;;;;;;;;;4959863;29;20031;-58
2024/01/13 03:50:27;;;;;;;48.03;23.52;;;;;;;;;;4963487;29;20047;-59
2024/01/13 03:52:53;;;;;;;41.30;20.97;;;;;;;;;;4962776;29;20048;-58
2024/01/13 03:55:19;;;;;;;43.30;22.08;;;;;;;;;;4959458;29;20047;-59
2024/01/13 03:57:45;;;;;;;43.40;21.50;;;;;;;;;;4943471;29;20031;-59
2024/01/13 04:00:10;;;;;;;44.80;21.53;;;;;;;;;;4959448;29;20286;-59
2024/01/13 04:02:35;;;;;;;44.40;21.77;;;;;;;;;;4959665;29;20027;-60
2024/01/13 04:05:02;;;;;;;37.47;19.52;;;;;;;;;;4959541;29;20032;-56
2024/01/13 04:07:27;;;;;;;39.90;20.70;;;;;;;;;;4942738;29;20050;-59
2024/01/13 04:09:53;;;;;;;40.93;20.27;;;;;;;;;;4967800;29;20035;-60
2024/01/13 04:12:18;;;;;;;41.93;21.63;;;;;;;;;;4962052;29;20028;-59
2024/01/13 04:14:44;;;;;;;51.90;20.10;;;;;;;;;;4972941;29;20107;-59
2024/01/13 04:17:10;;;;;;;42.35;20.75;;;;;;;;;;4962295;29;20038;-58
2024/01/13 04:19:36;;;;;;;39.33;20.80;;;;;;;;;;4959257;29;20095;-59
2024/01/13 04:22:01;;;;;;;43.30;19.93;;;;;;;;;;4964837;29;20054;-58
2024/01/13 04:24:27;;;;;;;50.70;19.97;;;;;;;;;;4965220;29;20181;-57
2024/01/13 04:26:53;;;;;;;41.87;19.53;;;;;;;;;;4958932;29;20453;-58
2024/01/13 04:29:19;;;;;;;45.47;20.58;;;;;;;;;;4958967;29;20306;-60
2024/01/13 04:31:45;;;;;;;50.37;21.47;;;;;;;;;;4961498;29;20059;-58
2024/01/13 04:34:10;;;;;;;39.90;20.10;;;;;;;;;;4963011;29;20036;-58
2024/01/13 04:36:36;;;;;;;48.13;20.23;;;;;;;;;;4959658;29;20066;-59
2024/01/13 04:39:01;;;;;;;47.30;18.93;;;;;;;;;;4958858;29;20028;-59
2024/01/13 04:41:27;;;;;;;36.27;16.87;;;;;;;;;;4964783;29;20333;-60
2024/01/13 04:43:52;;;;;;;39.07;18.63;;;;;;;;;;4968039;29;20161;-60
2024/01/13 04:46:18;;;;;;;43.90;19.40;;;;;;;;;;4958495;29;20044;-57
2024/01/13 04:48:43;;;;;;;43.40;18.90;;;;;;;;;;4958424;29;20266;-60
2024/01/13 04:51:09;;;;;;;47.17;20.47;;;;;;;;;;4959735;29;20043;-59
2024/01/13 04:53:34;;;;;;;46.10;19.90;;;;;;;;;;4963217;28;20047;-61
2024/01/13 04:56:00;;;;;;;47.77;20.70;;;;;;;;;;4967519;29;20285;-59
2024/01/13 04:58:25;;;;;;;46.20;20.38;;;;;;;;;;4959310;29;20083;-59
2024/01/13 05:00:51;;;;;;;40.80;18.97;;;;;;;;;;4941025;29;20035;-59
2024/01/13 05:03:16;;;;;;;40.03;18.03;;;;;;;;;;4965573;29;20035;-57
2024/01/13 05:05:41;;;;;;;25.20;14.07;;;;;;;;;;4959833;29;20051;-58
2024/01/13 05:08:08;;;;;;;34.70;14.47;;;;;;;;;;4960637;29;20095;-59
2024/01/13 05:10:34;;;;;;;35.28;16.83;;;;;;;;;;4962084;29;20281;-57
2024/01/13 05:13:00;;;;;;;28.17;13.83;;;;;;;;;;4945370;29;20036;-59
2024/01/13 05:15:25;;;;;;;32.90;13.82;;;;;;;;;;4964398;28;20035;-60
2024/01/13 05:17:51;;;;;;;21.23;9.83;;;;;;;;;;4957687;29;20042;-57
2024/01/13 05:20:16;;;;;;;25.90;12.60;;;;;;;;;;4964749;29;20032;-59
2024/01/13 05:22:42;;;;;;;28.40;14.30;;;;;;;;;;4957370;29;20301;-60
2024/01/13 05:25:08;;;;;;;28.17;14.70;;;;;;;;;;4959925;29;20035;-60
2024/01/13 05:27:34;;;;;;;36.72;17.50;;;;;;;;;;4946361;29;20039;-59
2024/01/13 05:29:59;;;;;;;38.43;17.13;;;;;;;;;;4965327;29;20046;-59
2024/01/13 05:32:25;;;;;;;36.35;16.15;;;;;;;;;;4944647;29;20038;-59
2024/01/13 05:34:50;;;;;;;43.00;16.70;;;;;;;;;;4962530;29;20027;-59
2024/01/13 05:37:15;;;;;;;39.43;16.73;;;;;;;;;;4965417;29;20051;-61
2024/01/13 05:39:41;;;;;;;35.63;16.02;;;;;;;;;;4957486;29;20059;-61
2024/01/13 05:42:08;;;;;;;43.43;17.13;;;;;;;;;;4940990;29;20032;-60
2024/01/13 05:44:34;;;;;;;46.13;18.05;;;;;;;;;;4957506;29;20262;-60
2024/01/13 05:46:59;;;;;;;57.47;20.43;;;;;;;;;;4957424;29;20050;-59
2024/01/13 05:49:25;;;;;;;58.60;19.45;;;;;;;;;;4957203;29;20037;-58
2024/01/13 05:51:50;;;;;;;54.03;19.70;;;;;;;;;;4964015;29;20035;-61
2024/01/13 05:54:16;;;;;;;65.33;21.67;;;;;;;;;;4965105;29;20103;-60
2024/01/13 05:56:41;;;;;;;57.90;21.37;;;;;;;;;;4957289;29;20304;-60
2024/01/13 05:59:07;;;;;;;56.60;18.47;;;;;;;;;;4951040;29;20100;-60
2024/01/13 06:01:33;;;;;;;54.83;18.80;;;;;;;;;;4949731;29;20330;-58
2024/01/13 06:03:58;;;;;;;56.70;17.87;;;;;;;;;;4962762;29;20038;-61
2024/01/13 06:06:24;;;;;;;46.67;17.43;;;;;;;;;;4957047;29;20032;-61
2024/01/13 06:08:50;;;;;;;57.73;17.47;;;;;;;;;;4941297;29;20044;-61
2024/01/13 06:11:16;;;;;;;49.20;16.98;;;;;;;;;;4956875;29;20046;-59
2024/01/13 06:13:42;;;;;;;53.70;18.50;;;;;;;;;;4957522;29;20032;-60
2024/01/13 06:16:08;;;;;;;59.17;18.97;;;;;;;;;;4956881;29;20330;-61
2024/01/13 06:18:34;;;;;;;55.85;18.00;;;;;;;;;;4956945;29;20024;-61
2024/01/13 06:21:00;;;;;;;70.60;21.63;;;;;;;;;;4957050;29;20122;-58
2024/01/13 06:23:25;;;;;;;60.00;19.88;;;;;;;;;;4955943;29;20047;-57
2024/01/13 06:25:51;;;;;;;73.77;22.97;;;;;;;;;;4966059;28;20036;-55
2024/01/13 06:28:16;;;;;;;70.47;21.57;;;;;;;;;;4956510;29;20035;-60
2024/01/13 06:30:42;;;;;;;60.93;19.00;;;;;;;;;;4940040;29;20282;-61
2024/01/13 06:33:08;;;;;;;62.83;18.75;;;;;;;;;;4961921;29;20062;-60
2024/01/13 06:35:33;;;;;;;70.20;20.80;;;;;;;;;;4964039;29;20091;-60
2024/01/13 06:37:59;;;;;;;70.93;22.47;;;;;;;;;;4956684;29;20038;-60
2024/01/13 06:40:25;;;;;;;68.70;20.05;;;;;;;;;;4962613;29;20031;-60
2024/01/13 06:42:51;;;;;;;47.57;17.50;;;;;;;;;;4966263;29;20066;-60
2024/01/13 06:45:17;;;;;;;52.72;18.38;;;;;;;;;;4964135;29;20274;-60
2024/01/13 06:47:42;;;;;;;48.23;17.83;;;;;;;;;;4956821;29;20046;-60
2024/01/13 06:50:08;;;;;;;53.40;18.43;;;;;;;;;;4956726;29;20039;-61
2024/01/13 06:52:34;;;;;;;50.35;17.63;;;;;;;;;;4959590;29;20053;-60
2024/01/13 06:55:00;;;;;;;52.17;16.73;;;;;;;;;;4955966;29;20101;-58
2024/01/13 06:57:25;;;;;;;;;;;;;;;;;;4927643;29;20031;-60
2024/01/13 06:59:51;;;;;;;55.30;17.47;;;;;;;;;;4952457;29;19911;-58
2024/01/13 07:02:17;;;;;;;60.85;19.02;;;;;;;;;;4956522;29;20047;-61
2024/01/13 07:04:43;;;;;;;63.80;21.53;;;;;;;;;;4965687;29;20082;-59
2024/01/13 07:07:08;;;;;;;;;;;;;;;;;;4956766;29;20091;-61
2024/01/13 07:09:34;;;;;;;57.83;19.77;;;;;;;;;;4956524;29;19915;-58
2024/01/13 07:11:59;;;;;;;60.43;21.97;;;;;;;;;;4939692;29;20035;-60
2024/01/13 07:14:25;;;;;;;67.17;22.20;;;;;;;;;;4963091;29;20099;-60
2024/01/13 07:16:50;;;;;;;75.23;23.37;;;;;;;;;;4956199;29;20266;-60
2024/01/13 07:19:16;;;;;;;66.73;24.83;;;;;;;;;;4956524;29;20031;-59
2024/01/13 07:21:42;;;;;;;68.93;23.60;;;;;;;;;;4956440;29;20046;-62
2024/01/13 07:24:09;;;;;;;70.53;25.07;;;;;;;;;;4959440;29;20059;-60
2024/01/13 07:26:41;;;;;;;75.05;25.30;;;;;;;;;;4958707;29;20266;-61
2024/01/13 07:29:07;;;;;;;79.22;24.85;;;;;;;;;;4966234;29;20036;-60
2024/01/13 07:31:32;;;;;;;76.05;25.58;;;;;;;;;;4956471;29;20093;-61
2024/01/13 07:33:57;;;;;;;76.23;28.20;;;;;;;;;;4958877;29;20046;-60
2024/01/13 07:36:23;;;;;;;79.47;27.05;;;;;;;;;;4961800;29;20035;-59
2024/01/13 07:38:48;;;;;;;71.83;26.40;;;;;;;;;;4959217;29;20039;-60
2024/01/13 07:41:14;;;;;;;68.20;26.03;;;;;;;;;;4959915;29;20039;-60
2024/01/13 07:43:39;;;;;;;71.23;22.77;;;;;;;;;;4970667;29;20265;-60
2024/01/13 07:46:05;;;;;;;72.87;25.83;;;;;;;;;;4968456;29;20067;-61
2024/01/13 07:48:31;;;;;;;79.03;28.80;;;;;;;;;;4970539;29;20035;-60
2024/01/13 07:50:56;;;;;;;80.37;29.60;;;;;;;;;;4959556;29;20070;-58
2024/01/13 07:53:22;;;;;;;70.93;27.33;;;;;;;;;;4960699;29;20039;-58
2024/01/13 07:55:47;;;;;;;78.43;27.30;;;;;;;;;;4966601;29;20322;-61
2024/01/13 07:58:13;;;;;;;70.60;25.37;;;;;;;;;;4954701;29;20051;-58
2024/01/13 08:00:38;;;;;;;68.50;24.17;;;;;;;;;;4959130;29;20278;-59
2024/01/13 08:03:05;;;;;;;;;;;;;;;;;;4959780;29;20048;-59
2024/01/13 08:05:31;;;;;;;68.23;24.17;;;;;;;;;;4964283;29;19921;-60
2024/01/13 08:07:56;;;;;;;63.10;23.08;;;;;;;;;;4970740;29;20094;-60
2024/01/13 08:10:23;;;;;;;71.13;24.55;;;;;;;;;;4930109;29;20039;-59
2024/01/13 08:12:49;;;;;;;66.35;25.10;;;;;;;;;;4961985;29;20026;-61
2024/01/13 08:15:15;;;;;;;49.60;19.90;;;;;;;;;;4960357;29;20023;-60
2024/01/13 08:17:40;;;;;;;80.00;27.30;;;;;;;;;;4950521;29;20362;-60
2024/01/13 08:20:06;;;;;;;68.53;25.10;;;;;;;;;;4959117;29;20036;-60
2024/01/13 08:22:32;;;;;;;69.20;25.58;;;;;;;;;;4958856;29;20047;-60
2024/01/13 08:24:57;;;;;;;62.93;24.83;;;;;;;;;;4961902;29;20028;-59
2024/01/13 08:27:25;;;;;;;62.40;23.03;;;;;;;;;;4967860;29;20028;-60
2024/01/13 08:29:51;;;;;;;67.82;25.60;;;;;;;;;;4958423;29;20282;-60
2024/01/13 08:32:16;;;;;;;62.40;24.13;;;;;;;;;;4959580;29;20198;-60
2024/01/13 08:34:42;;;;;;;60.93;25.13;;;;;;;;;;4947145;29;20277;-59
2024/01/13 08:37:07;;;;;;;57.97;22.67;;;;;;;;;;4964870;29;20032;-60
2024/01/13 08:39:33;;;;;;;59.37;22.57;;;;;;;;;;4971658;29;20062;-60
2024/01/13 08:41:59;;;;;;;57.40;22.90;;;;;;;;;;4958382;29;20343;-60
2024/01/13 08:44:24;;;;;;;76.07;27.00;;;;;;;;;;4958149;29;20044;-59
2024/01/13 08:46:49;;;;;;;87.17;29.50;;;;;;;;;;4958733;29;20038;-60
2024/01/13 08:49:15;;;;;;;67.40;23.23;;;;;;;;;;4957417;29;20035;-59
2024/01/13 08:51:40;;;;;;;69.30;24.43;;;;;;;;;;4958145;29;20028;-61
2024/01/13 08:54:06;;;;;;;75.70;27.65;;;;;;;;;;4960513;29;20131;-60
2024/01/13 08:56:34;;;;;;;70.67;26.03;;;;;;;;;;4975979;29;20030;-58
2024/01/13 08:58:59;;;;;;;63.83;25.33;;;;;;;;;;4951856;29;20047;-59
2024/01/13 09:01:24;;;;;;;81.70;27.73;;;;;;;;;;4964395;29;20059;-58
2024/01/13 09:03:50;;;;;;;71.75;25.98;;;;;;;;;;4941372;29;20039;-60
2024/01/13 09:06:16;;;;;;;52.78;22.92;;;;;;;;;;4963023;29;20028;-60
2024/01/13 09:08:41;;;;;;;47.90;21.63;;;;;;;;;;4958033;29;20024;-60
2024/01/13 09:11:06;;;;;;;58.33;21.60;;;;;;;;;;4941487;29;20300;-59
2024/01/13 09:13:32;;;;;;;53.63;21.63;;;;;;;;;;4959545;29;20031;-58
2024/01/13 09:15:58;;;;;;;50.25;22.50;;;;;;;;;;4935312;29;20030;-59
2024/01/13 09:18:25;;;;;;;47.75;20.27;;;;;;;;;;4959059;29;20032;-59
2024/01/13 09:20:50;;;;;;;44.67;20.52;;;;;;;;;;4957832;29;20038;-60
2024/01/13 09:23:16;;;;;;;47.20;21.07;;;;;;;;;;4941346;29;20131;-60
2024/01/13 09:25:41;;;;;;;51.13;21.50;;;;;;;;;;4963648;29;20031;-59
2024/01/13 09:28:07;;;;;;;49.90;21.00;;;;;;;;;;4960062;29;20285;-60
2024/01/13 09:30:32;;;;;;;50.17;21.43;;;;;;;;;;4966826;29;20035;-60
2024/01/13 09:32:59;;;;;;;56.40;22.83;;;;;;;;;;4957514;29;20314;-60
2024/01/13 09:35:25;;;;;;;61.10;23.35;;;;;;;;;;4964453;29;20047;-60
2024/01/13 09:37:50;;;;;;;49.90;21.77;;;;;;;;;;4967225;29;20073;-59
2024/01/13 09:40:17;;;;;;;54.80;22.13;;;;;;;;;;4959121;29;20066;-60
2024/01/13 09:42:48;;;;;;;52.67;22.50;;;;;;;;;;4957643;29;20031;-59
2024/01/13 09:45:14;;;;;;;53.30;21.35;;;;;;;;;;4961289;29;20391;-56
2024/01/13 09:47:42;;;;;;;43.80;19.63;;;;;;;;;;4963257;29;20046;-60
2024/01/13 09:50:09;;;;;;;41.25;18.73;;;;;;;;;;4950402;29;20060;-60
2024/01/13 09:52:35;;;;;;;48.65;18.88;;;;;;;;;;4938292;29;20071;-57
2024/01/13 09:55:00;;;;;;;50.17;21.03;;;;;;;;;;4966483;29;20043;-61
2024/01/13 09:57:27;;;;;;;50.28;22.30;;;;;;;;;;4959544;29;20051;-59
2024/01/13 09:59:53;;;;;;;64.28;25.73;;;;;;;;;;4963631;28;20061;-60
2024/01/13 10:02:19;;;;;;;58.42;23.45;;;;;;;;;;4957294;29;20036;-60
2024/01/13 10:04:44;;;;;;;60.90;24.57;;;;;;;;;;4962214;29;20034;-61
2024/01/13 10:07:10;;;;;;;75.67;27.80;;;;;;;;;;4965695;29;20035;-58
2024/01/13 10:09:37;;;;;;;;;;;;;;;;;;4957246;29;20337;-58
2024/01/13 10:12:04;;;;;;;77.73;28.83;;;;;;;;;;4956929;29;19934;-61
2024/01/13 10:14:29;;;;;;;61.75;24.92;;;;;;;;;;4958880;29;20050;-58
2024/01/13 10:17:00;;;;;;;63.87;26.40;;;;;;;;;;4957493;29;20123;-56
2024/01/13 10:19:25;;;;;;;57.50;23.05;;;;;;;;;;4953610;29;20040;-59
2024/01/13 10:21:52;;;;;;;52.83;23.45;;;;;;;;;;4963658;29;20031;-60
2024/01/13 10:24:18;;;;;;;70.10;23.30;;;;;;;;;;4957010;29;20059;-59
2024/01/13 10:26:43;;;;;;;56.45;22.80;;;;;;;;;;4956386;29;20027;-59
2024/01/13 10:29:09;;;;;;;53.63;21.80;;;;;;;;;;4972727;29;20038;-59
2024/01/13 10:31:35;;;;;;;43.53;17.97;;;;;;;;;;4960829;29;20040;-58
2024/01/13 10:34:00;;;;;;;51.35;21.17;;;;;;;;;;4975138;29;20024;-59
2024/01/13 10:36:26;;;;;;;46.90;18.73;;;;;;;;;;4963977;29;20043;-60
2024/01/13 10:38:52;;;;;;;40.35;17.27;;;;;;;;;;4960579;29;20031;-56
2024/01/13 10:41:21;;;;;;;51.85;19.10;;;;;;;;;;4956603;29;20040;-57
2024/01/13 10:43:49;;;;;;;55.35;19.52;;;;;;;;;;4956576;29;20099;-58
2024/01/13 10:46:21;;;;;;;46.35;18.88;;;;;;;;;;4959247;29;20038;-56
2024/01/13 10:48:48;;;;;;;47.88;19.13;;;;;;;;;;4957190;29;20036;-57
2024/01/13 10:51:28;;;;;;;53.25;21.70;;;;;;;;;;4939503;29;20043;-58
2024/01/13 10:53:58;;;;;;;43.95;19.80;;;;;;;;;;4948386;29;20115;-54
2024/01/13 10:56:23;;;;;;;40.15;16.10;;;;;;;;;;4958419;29;20035;-57
2024/01/13 10:58:50;;;;;;;32.08;14.45;;;;;;;;;;4962955;29;20036;-55
2024/01/13 11:01:15;;;;;;;30.98;14.88;;;;;;;;;;4960691;29;20042;-54
2024/01/13 11:03:44;;;;;;;32.13;14.67;;;;;;;;;;4956881;29;20067;-58
2024/01/13 11:06:09;;;;;;;30.98;13.05;;;;;;;;;;4939082;29;20031;-58
2024/01/13 11:08:35;;;;;;;23.83;10.83;;;;;;;;;;4963770;29;20042;-57
2024/01/13 11:11:01;;;;;;;34.60;13.90;;;;;;;;;;4956403;29;20036;-57
2024/01/13 11:13:30;;;;;;;37.80;15.00;;;;;;;;;;4958566;29;20096;-58
2024/01/13 11:16:04;;;;;;;36.53;15.68;;;;;;;;;;4950079;29;20323;-59
2024/01/13 11:18:35;;;;;;;40.22;15.65;;;;;;;;;;4949911;29;20035;-59
2024/01/13 11:21:01;;;;;;;37.55;16.65;;;;;;;;;;4966052;29;20126;-59
2024/01/13 11:23:27;;;;;;;37.78;16.98;;;;;;;;;;4963171;29;20251;-59
2024/01/13 11:25:53;;;;;;;42.00;17.17;;;;;;;;;;4966531;29;20051;-57
2024/01/13 11:28:20;;;;;;;38.38;17.45;;;;;;;;;;4963872;29;20043;-58
2024/01/13 11:30:49;;;;;;;45.70;16.95;;;;;;;;;;4965433;29;20035;-59
2024/01/13 11:33:17;;;;;;;40.95;16.65;;;;;;;;;;4964882;29;20043;-56
2024/01/13 11:35:48;;;;;;;37.95;15.75;;;;;;;;;;4959193;29;20031;-58
2024/01/13 11:38:14;;;;;;;45.65;18.05;;;;;;;;;;4971782;29;20035;-58
2024/01/13 11:40:46;;;;;;;36.83;17.42;;;;;;;;;;4964712;29;20043;-59
2024/01/13 11:43:23;;;;;;;44.95;16.63;;;;;;;;;;4968621;29;20078;-55
2024/01/13 11:45:50;;;;;;;41.95;18.13;;;;;;;;;;4963048;29;20059;-59
2024/01/13 11:48:35;;;;;;;37.70;16.52;;;;;;;;;;4941656;29;20091;-56
2024/01/13 11:51:01;;;;;;;40.22;17.30;;;;;;;;;;4968178;29;20066;-57
2024/01/13 11:53:40;;;;;;;40.40;19.73;;;;;;;;;;4971568;29;20020;-57
2024/01/13 11:56:05;;;;;;;43.00;18.10;;;;;;;;;;4959649;29;20031;-58
2024/01/13 11:58:33;;;;;;;48.28;19.70;;;;;;;;;;4966245;29;20095;-57
2024/01/13 12:00:59;;;;;;;47.33;19.92;;;;;;;;;;4962797;29;20039;-59
2024/01/13 12:03:24;;;;;;;49.05;20.38;;;;;;;;;;4961859;29;20088;-60
2024/01/13 12:05:50;;;;;;;54.67;22.23;;;;;;;;;;4963344;29;20051;-58
2024/01/13 12:08:15;;;;;;;53.43;21.00;;;;;;;;;;4958579;29;20262;-57
2024/01/13 12:10:44;;;;;;;47.07;20.83;;;;;;;;;;4960570;29;20028;-60
2024/01/13 12:13:16;;;;;;;54.67;21.98;;;;;;;;;;4959164;29;20084;-57
2024/01/13 12:15:45;;;;;;;63.00;26.42;;;;;;;;;;4959139;29;20027;-57
2024/01/13 12:18:16;;;;;;;57.58;25.55;;;;;;;;;;4961952;29;20063;-58
2024/01/13 12:20:42;;;;;;;65.80;28.33;;;;;;;;;;4959532;29;20099;-59
2024/01/13 12:23:08;;;;;;;68.60;27.53;;;;;;;;;;4959014;29;20051;-58
2024/01/13 12:25:33;;;;;;;68.83;27.80;;;;;;;;;;4959101;29;20032;-59
2024/01/13 12:27:59;;;;;;;69.70;27.10;;;;;;;;;;4962511;29;20337;-61
2024/01/13 12:30:24;;;;;;;89.80;30.98;;;;;;;;;;4963797;29;20028;-58
2024/01/13 12:32:50;;;;;;;61.03;25.05;;;;;;;;;;4958887;29;20075;-59
2024/01/13 12:35:15;;;;;;;60.83;25.00;;;;;;;;;;4958822;29;20059;-60
2024/01/13 12:37:43;;;;;;;58.42;26.55;;;;;;;;;;4961012;29;20106;-60
2024/01/13 12:40:09;;;;;;;77.28;27.27;;;;;;;;;;4965082;29;20067;-58
2024/01/13 12:42:38;;;;;;;57.40;23.98;;;;;;;;;;4942349;29;20039;-59
2024/01/13 12:45:04;;;;;;;73.72;28.08;;;;;;;;;;4941799;29;20064;-58
2024/01/13 12:47:29;;;;;;;68.63;27.13;;;;;;;;;;4941265;29;20047;-60
2024/01/13 12:50:05;;;;;;;67.67;26.57;;;;;;;;;;4962037;29;20070;-58
2024/01/13 12:52:30;;;;;;;72.25;27.85;;;;;;;;;;4958408;29;20083;-56
2024/01/13 12:54:56;;;;;;;66.97;27.10;;;;;;;;;;4958324;29;20165;-58
2024/01/13 12:57:21;;;;;;;79.67;30.13;;;;;;;;;;4958400;29;20031;-58
2024/01/13 12:59:47;;;;;;;67.87;26.10;;;;;;;;;;4966113;29;20285;-58
2024/01/13 13:02:12;;;;;;;77.57;31.13;;;;;;;;;;4956893;29;20038;-59
2024/01/13 13:04:38;;;;;;;82.00;29.73;;;;;;;;;;4957931;29;20062;-59
2024/01/13 13:07:04;;;;;;;81.17;30.77;;;;;;;;;;4958469;29;20034;-58
2024/01/13 13:09:29;;;;;;;72.40;27.52;;;;;;;;;;4958756;29;20047;-59
2024/01/13 13:11:55;;;;;;;82.20;29.93;;;;;;;;;;4958118;29;20055;-59
2024/01/13 13:14:21;;;;;;;86.63;31.27;;;;;;;;;;4945853;29;20036;-59
2024/01/13 13:16:46;;;;;;;77.53;28.77;;;;;;;;;;4957870;29;20059;-59
2024/01/13 13:19:13;;;;;;;71.50;27.77;;;;;;;;;;4965008;29;20273;-57
2024/01/13 13:21:39;;;;;;;74.03;27.73;;;;;;;;;;4970571;29;20060;-59
2024/01/13 13:24:05;;;;;;;81.18;31.58;;;;;;;;;;4957982;29;20024;-54
2024/01/13 13:26:31;;;;;;;66.83;24.70;;;;;;;;;;4941248;29;20034;-57
2024/01/13 13:28:56;;;;;;;57.10;21.53;;;;;;;;;;4959315;29;20050;-59
2024/01/13 13:31:23;;;;;;;72.53;27.03;;;;;;;;;;4964699;29;20341;-59
2024/01/13 13:33:49;;;;;;;73.38;25.38;;;;;;;;;;4957496;29;20051;-57
2024/01/13 13:36:15;;;;;;;62.90;25.35;;;;;;;;;;4957188;29;20095;-59
2024/01/13 13:38:41;;;;;;;73.18;28.38;;;;;;;;;;4957544;29;20034;-55
2024/01/13 13:41:08;;;;;;;71.85;28.15;;;;;;;;;;4965153;29;20043;-57
2024/01/13 13:43:34;;;;;;;68.47;25.80;;;;;;;;;;4957722;29;20042;-58
2024/01/13 13:45:59;;;;;;;76.20;25.85;;;;;;;;;;4957705;29;20035;-58
2024/01/13 13:48:28;;;;;;;77.93;27.63;;;;;;;;;;4959213;29;20035;-59
2024/01/13 13:50:53;;;;;;;80.22;29.90;;;;;;;;;;4962844;29;20051;-58
2024/01/13 13:53:21;;;;;;;74.30;30.23;;;;;;;;;;4957652;29;20055;-58
2024/01/13 13:55:46;;;;;;;77.78;29.25;;;;;;;;;;4957258;29;20278;-56
2024/01/13 13:58:11;;;;;;;73.20;27.27;;;;;;;;;;4947871;29;20047;-58
2024/01/13 14:00:37;;;;;;;63.95;23.95;;;;;;;;;;4960552;29;20032;-57
2024/01/13 14:03:03;;;;;;;58.20;23.73;;;;;;;;;;4950946;29;20067;-60
2024/01/13 14:05:29;;;;;;;59.75;21.95;;;;;;;;;;4956984;29;20080;-58
2024/01/13 14:07:55;;;;;;;62.20;23.38;;;;;;;;;;4957448;29;20036;-57
2024/01/13 14:10:21;;;;;;;58.13;23.67;;;;;;;;;;4962023;29;20040;-61
2024/01/13 14:12:47;;;;;;;64.13;24.03;;;;;;;;;;4947643;29;20036;-58
2024/01/13 14:15:12;;;;;;;62.70;23.37;;;;;;;;;;4957285;29;20044;-58